createdAt,value
2023-02-02T00:01:25.214Z,74.88
2023-02-02T00:03:55.973Z,74.86
2023-02-02T00:06:27.060Z,74.81
2023-02-02T00:08:57.529Z,76.57
2023-02-02T00:11:25.570Z,76.25
2023-02-02T00:13:53.488Z,76.15
2023-02-02T00:16:39.842Z,75.42
2023-02-02T00:19:11.229Z,75.23
2023-02-02T00:21:39.156Z,76.39
2023-02-02T00:24:08.412Z,75.89
2023-02-02T00:26:37.152Z,75.21
2023-02-02T00:29:05.992Z,75.13
2023-02-02T00:31:33.655Z,75.44
2023-02-02T00:34:01.733Z,76.07
2023-02-02T00:36:30.899Z,76.14
2023-02-02T00:38:58.498Z,76.28
2023-02-02T00:41:26.447Z,76.38
2023-02-02T00:44:08.357Z,76.41
2023-02-02T00:46:40.266Z,76.34
2023-02-02T00:49:08.051Z,76.23
2023-02-02T00:51:37.393Z,76.00
2023-02-02T00:54:06.430Z,75.75
2023-02-02T00:56:34.723Z,75.92
2023-02-02T00:59:02.315Z,76.54
2023-02-02T01:01:29.955Z,76.42
2023-02-02T01:03:57.536Z,77.06
2023-02-02T01:06:25.957Z,76.73
2023-02-02T01:08:55.243Z,77.06
2023-02-02T01:11:23.806Z,76.85
2023-02-02T01:13:51.383Z,77.05
2023-02-02T01:16:22.755Z,76.94
2023-02-02T01:18:51.263Z,77.74
2023-02-02T01:21:19.588Z,77.33
2023-02-02T01:23:47.455Z,77.66
2023-02-02T01:26:17.999Z,78.56
2023-02-02T01:28:46.224Z,77.92
2023-02-02T01:31:16.088Z,77.97
2023-02-02T01:33:44.743Z,77.32
2023-02-02T01:36:14.326Z,77.79
2023-02-02T01:38:42.587Z,76.80
2023-02-02T01:41:13.921Z,76.90
2023-02-02T01:43:55.914Z,78.90
2023-02-02T01:46:26.292Z,77.66
2023-02-02T01:49:00.852Z,77.40
2023-02-02T01:51:35.696Z,77.73
2023-02-02T01:54:04.129Z,77.64
2023-02-02T01:56:38.987Z,78.07
2023-02-02T01:59:08.653Z,77.79
2023-02-02T02:01:36.579Z,78.32
2023-02-02T02:04:04.375Z,78.12
2023-02-02T02:06:33.179Z,78.49
2023-02-02T02:09:04.686Z,78.19
2023-02-02T02:11:34.456Z,77.80
2023-02-02T02:14:23.064Z,78.19
2023-02-02T02:17:15.469Z,78.08
2023-02-02T02:20:31.442Z,78.36
2023-02-02T02:23:50.615Z,78.61
2023-02-02T02:26:40.093Z,78.19
2023-02-02T02:29:48.905Z,78.44
2023-02-02T02:32:32.525Z,78.68
2023-02-02T02:35:10.252Z,78.63
2023-02-02T02:37:44.244Z,78.31
2023-02-02T02:40:20.772Z,78.35
2023-02-02T02:42:53.569Z,78.70
2023-02-02T02:45:23.116Z,79.46
2023-02-02T02:47:53.269Z,79.47
2023-02-02T02:50:22.981Z,79.45
2023-02-02T02:53:06.474Z,80.17
2023-02-02T02:55:44.081Z,79.88
2023-02-02T02:58:18.216Z,79.22
2023-02-02T03:01:00.740Z,79.84
2023-02-02T03:03:47.162Z,79.07
2023-02-02T03:06:22.437Z,79.71
2023-02-02T03:08:56.518Z,80.71
2023-02-02T03:11:24.116Z,80.55
2023-02-02T03:13:52.408Z,80.88
2023-02-02T03:16:19.989Z,80.40
2023-02-02T03:18:49.458Z,80.20
2023-02-02T03:21:17.190Z,80.61
2023-02-02T03:23:45.283Z,81.20
2023-02-02T03:26:12.975Z,80.14
2023-02-02T03:28:42.266Z,80.76
2023-02-02T03:31:10.218Z,81.48
2023-02-02T03:33:39.398Z,80.27
2023-02-02T03:36:09.072Z,80.36
2023-02-02T03:38:37.320Z,80.31
2023-02-02T03:41:06.062Z,81.14
2023-02-02T03:43:34.227Z,81.49
2023-02-02T03:46:04.483Z,80.95
2023-02-02T03:48:33.443Z,81.20
2023-02-02T03:51:01.062Z,81.64
2023-02-02T03:53:30.322Z,81.69
2023-02-02T03:55:57.944Z,81.41
2023-02-02T03:58:25.530Z,80.79
2023-02-02T04:00:55.477Z,81.13
2023-02-02T04:03:23.099Z,80.90
2023-02-02T04:05:51.271Z,81.90
2023-02-02T04:08:18.898Z,80.99
2023-02-02T04:10:47.919Z,81.21
2023-02-02T04:13:15.945Z,81.59
2023-02-02T04:15:43.565Z,81.79
2023-02-02T04:18:11.160Z,82.05
2023-02-02T04:20:38.894Z,81.88
2023-02-02T04:23:06.762Z,82.25
2023-02-02T04:25:34.343Z,82.22
2023-02-02T04:28:04.075Z,82.01
2023-02-02T04:30:31.983Z,81.51
2023-02-02T04:32:59.870Z,80.84
2023-02-02T04:35:27.533Z,81.34
2023-02-02T04:37:56.347Z,80.36
2023-02-02T04:40:24.172Z,81.02
2023-02-02T04:42:52.215Z,81.86
2023-02-02T04:45:21.801Z,81.85
2023-02-02T04:47:49.421Z,83.46
2023-02-02T04:50:18.015Z,83.01
2023-02-02T04:52:45.616Z,82.84
2023-02-02T04:55:13.548Z,83.07
2023-02-02T04:57:41.468Z,82.61
2023-02-02T05:00:11.312Z,81.85
2023-02-02T05:02:43.162Z,81.55
2023-02-02T05:05:13.688Z,81.51
2023-02-02T05:07:41.589Z,81.10
2023-02-02T05:10:11.715Z,81.64
2023-02-02T05:12:39.335Z,81.95
2023-02-02T05:15:08.629Z,81.54
2023-02-02T05:17:36.262Z,80.63
2023-02-02T05:20:06.005Z,79.91
2023-02-02T05:22:35.117Z,80.49
2023-02-02T05:25:02.945Z,79.13
2023-02-02T05:27:30.516Z,79.84
2023-02-02T05:29:59.176Z,80.47
2023-02-02T05:32:27.974Z,79.82
2023-02-02T05:34:55.901Z,79.31
2023-02-02T05:37:24.883Z,79.61
2023-02-02T05:39:53.933Z,80.43
2023-02-02T05:42:21.523Z,81.64
2023-02-02T05:44:49.681Z,81.71
2023-02-02T05:47:17.270Z,81.31
2023-02-02T05:49:44.959Z,80.65
2023-02-02T05:52:18.561Z,80.39
2023-02-02T05:54:48.370Z,81.34
2023-02-02T05:57:16.365Z,82.61
2023-02-02T05:59:45.225Z,83.31
2023-02-02T06:02:12.849Z,82.23
2023-02-02T06:04:41.107Z,81.96
2023-02-02T06:07:08.695Z,82.70
2023-02-02T06:09:37.341Z,82.91
2023-02-02T06:12:06.974Z,81.43
2023-02-02T06:14:34.954Z,81.38
2023-02-02T06:17:02.680Z,81.13
2023-02-02T06:19:30.988Z,81.54
2023-02-02T06:21:58.556Z,81.11
2023-02-02T06:24:26.410Z,80.96
2023-02-02T06:26:54.689Z,81.53
2023-02-02T06:29:23.882Z,80.12
2023-02-02T06:31:51.620Z,80.49
2023-02-02T06:34:19.399Z,80.02
2023-02-02T06:36:47.026Z,80.49
2023-02-02T06:39:14.626Z,81.17
2023-02-02T06:41:45.350Z,81.18
2023-02-02T06:44:14.740Z,82.29
2023-02-02T06:46:44.407Z,81.72
2023-02-02T06:49:11.977Z,82.15
2023-02-02T06:51:40.039Z,82.49
2023-02-02T06:54:07.684Z,81.23
2023-02-02T06:56:36.416Z,82.53
2023-02-02T06:59:04.035Z,81.99
2023-02-02T07:01:32.611Z,82.76
2023-02-02T07:04:01.553Z,82.13
2023-02-02T07:06:30.612Z,82.32
2023-02-02T07:09:02.339Z,83.04
2023-02-02T07:11:34.590Z,82.76
2023-02-02T07:14:02.935Z,82.26
2023-02-02T07:16:31.492Z,81.52
2023-02-02T07:18:59.100Z,81.45
2023-02-02T07:21:30.189Z,81.71
2023-02-02T07:23:58.672Z,81.94
2023-02-02T07:26:27.906Z,82.43
2023-02-02T07:28:55.801Z,82.98
2023-02-02T07:31:26.231Z,82.98
2023-02-02T07:33:54.803Z,82.17
2023-02-02T07:36:24.759Z,83.49
2023-02-02T07:38:55.210Z,83.09
2023-02-02T07:41:23.959Z,84.10
2023-02-02T07:43:52.478Z,84.60
2023-02-02T07:46:21.322Z,86.12
2023-02-02T07:48:49.432Z,86.51
2023-02-02T07:51:19.776Z,86.49
2023-02-02T07:53:48.665Z,85.32
2023-02-02T07:56:20.607Z,86.51
2023-02-02T07:58:48.463Z,86.18
2023-02-02T08:01:17.248Z,86.71
2023-02-02T08:03:45.393Z,87.97
2023-02-02T08:06:15.722Z,87.79
2023-02-02T08:08:43.312Z,88.55
2023-02-02T08:11:13.312Z,87.72
2023-02-02T08:13:43.383Z,89.10
2023-02-02T08:16:13.134Z,89.87
2023-02-02T08:18:40.867Z,91.13
2023-02-02T08:21:09.659Z,92.09
2023-02-02T08:23:37.698Z,91.82
2023-02-02T08:26:11.417Z,91.02
2023-02-02T08:28:40.075Z,92.06
2023-02-02T08:31:12.467Z,93.35
2023-02-02T08:33:40.118Z,92.62
2023-02-02T08:36:12.429Z,91.96
2023-02-02T08:38:40.132Z,91.61
2023-02-02T08:41:09.591Z,93.74
2023-02-02T08:43:38.132Z,93.13
2023-02-02T08:46:06.446Z,92.08
2023-02-02T08:48:36.585Z,92.84
2023-02-02T08:51:05.901Z,92.72
2023-02-02T08:53:34.273Z,93.36
2023-02-02T08:56:03.993Z,92.91
2023-02-02T08:58:33.742Z,92.04
2023-02-02T09:01:06.578Z,91.89
2023-02-02T09:03:34.245Z,92.58
2023-02-02T09:06:07.162Z,92.72
2023-02-02T09:08:35.414Z,91.79
2023-02-02T09:11:08.474Z,92.21
2023-02-02T09:13:36.617Z,91.99
2023-02-02T09:16:06.243Z,92.57
2023-02-02T09:18:34.088Z,90.75
2023-02-02T09:21:03.271Z,90.83
2023-02-02T09:23:33.524Z,90.83
2023-02-02T09:26:10.997Z,89.90
2023-02-02T09:28:39.567Z,91.48
2023-02-02T09:31:07.724Z,92.84
2023-02-02T09:33:36.047Z,92.07
2023-02-02T09:36:08.683Z,90.66
2023-02-02T09:38:38.314Z,90.95
2023-02-02T09:41:28.990Z,90.49
2023-02-02T09:44:07.545Z,90.80
2023-02-02T09:46:50.196Z,89.22
2023-02-02T09:49:23.579Z,89.68
2023-02-02T09:51:57.397Z,89.43
2023-02-02T09:54:33.324Z,89.34
2023-02-02T09:57:05.978Z,88.76
2023-02-02T09:59:38.189Z,88.63
2023-02-02T10:02:14.487Z,89.27
2023-02-02T10:04:45.020Z,88.70
2023-02-02T10:07:18.691Z,89.97
2023-02-02T10:09:52.195Z,90.40
2023-02-02T10:12:32.693Z,89.61
2023-02-02T10:15:06.413Z,90.34
2023-02-02T10:17:41.726Z,88.94
2023-02-02T10:20:22.228Z,88.20
2023-02-02T10:22:51.446Z,87.43
2023-02-02T10:25:23.688Z,86.93
2023-02-02T10:28:01.987Z,86.78
2023-02-02T10:30:41.816Z,87.14
2023-02-02T10:33:21.323Z,87.32
2023-02-02T10:35:58.057Z,86.91
2023-02-02T10:38:37.863Z,87.00
2023-02-02T10:41:16.353Z,87.01
2023-02-02T10:44:05.173Z,86.92
2023-02-02T10:46:37.256Z,86.78
2023-02-02T10:49:20.195Z,86.77
2023-02-02T10:51:55.104Z,86.00
2023-02-02T10:54:58.185Z,86.09
2023-02-02T10:57:48.371Z,87.01
2023-02-02T11:00:23.875Z,85.95
2023-02-02T11:02:53.368Z,86.07
2023-02-02T11:05:41.736Z,86.48
2023-02-02T11:08:15.480Z,85.32
2023-02-02T11:10:45.011Z,86.01
2023-02-02T11:13:20.316Z,88.43
2023-02-02T11:15:48.383Z,88.29
2023-02-02T11:18:28.280Z,90.07
2023-02-02T11:20:57.199Z,90.58
2023-02-02T11:23:29.089Z,89.62
2023-02-02T11:26:02.520Z,89.03
2023-02-02T11:28:35.648Z,87.57
2023-02-02T11:31:04.477Z,87.83
2023-02-02T11:33:34.193Z,88.59
2023-02-02T11:36:04.211Z,90.42
2023-02-02T11:38:32.778Z,90.42
2023-02-02T11:41:03.743Z,90.86
2023-02-02T11:43:40.801Z,89.95
2023-02-02T11:46:19.631Z,89.98
2023-02-02T11:48:52.857Z,89.86
2023-02-02T11:51:24.644Z,89.88
2023-02-02T11:54:03.864Z,89.68
2023-02-02T11:56:32.027Z,89.19
2023-02-02T11:59:04.257Z,91.68
2023-02-02T12:01:34.837Z,90.72
2023-02-02T12:04:04.503Z,92.15
2023-02-02T12:06:36.823Z,92.32
2023-02-02T12:09:13.026Z,91.63
2023-02-02T12:11:54.484Z,90.82
2023-02-02T12:14:36.538Z,90.67
2023-02-02T12:17:14.907Z,92.53
2023-02-02T12:19:57.508Z,91.72
2023-02-02T12:22:38.501Z,90.97
2023-02-02T12:25:25.185Z,91.39
2023-02-02T12:27:58.639Z,92.48
2023-02-02T12:30:40.615Z,93.04
2023-02-02T12:33:22.248Z,91.93
2023-02-02T12:36:08.482Z,93.04
2023-02-02T12:38:57.664Z,92.58
2023-02-02T12:41:37.694Z,92.13
2023-02-02T12:44:15.108Z,92.58
2023-02-02T12:46:59.857Z,92.95
2023-02-02T12:50:09.586Z,91.91
2023-02-02T12:52:55.989Z,93.07
2023-02-02T12:55:30.705Z,92.11
2023-02-02T12:58:07.671Z,91.27
2023-02-02T13:00:52.628Z,91.94
2023-02-02T13:03:31.863Z,91.61
2023-02-02T13:06:27.134Z,92.26
2023-02-02T13:08:59.654Z,92.74
2023-02-02T13:11:39.147Z,92.87
2023-02-02T13:14:11.144Z,92.54
2023-02-02T13:16:42.460Z,92.22
2023-02-02T13:19:18.582Z,92.13
2023-02-02T13:21:47.718Z,91.75
2023-02-02T13:24:28.617Z,91.17
2023-02-02T13:27:00.292Z,92.18
2023-02-02T13:29:37.909Z,93.29
2023-02-02T13:32:22.514Z,92.46
2023-02-02T13:34:56.756Z,92.16
2023-02-02T13:37:32.072Z,92.16
2023-02-02T13:40:04.729Z,92.33
2023-02-02T13:42:41.927Z,91.67
2023-02-02T13:45:29.651Z,92.84
2023-02-02T13:48:06.755Z,91.97
2023-02-02T13:50:46.064Z,90.84
2023-02-02T13:53:39.599Z,92.05
2023-02-02T13:56:26.510Z,92.92
2023-02-02T13:59:04.756Z,92.96
2023-02-02T14:01:33.655Z,92.23
2023-02-02T14:04:01.966Z,92.01
2023-02-02T14:06:57.995Z,91.43
2023-02-02T14:09:29.172Z,90.34
2023-02-02T14:12:01.579Z,91.51
2023-02-02T14:14:33.351Z,91.55
2023-02-02T14:17:03.626Z,91.45
2023-02-02T14:19:53.767Z,91.74
2023-02-02T14:22:43.016Z,91.38
2023-02-02T14:25:51.553Z,91.21
2023-02-02T14:28:42.010Z,91.77
2023-02-02T14:31:44.400Z,90.73
2023-02-02T14:34:30.463Z,91.78
2023-02-02T14:37:44.594Z,92.49
2023-02-02T14:40:30.845Z,93.01
2023-02-02T14:43:27.944Z,92.65
2023-02-02T14:46:24.473Z,91.98
2023-02-02T14:49:15.012Z,91.30
2023-02-02T14:51:54.070Z,92.36
2023-02-02T14:54:26.401Z,92.60
2023-02-02T14:56:59.091Z,92.12
2023-02-02T14:59:31.805Z,92.45
2023-02-02T15:02:11.423Z,92.56
2023-02-02T15:04:39.460Z,92.01
2023-02-02T15:07:59.335Z,91.15
2023-02-02T15:11:27.477Z,91.56
2023-02-02T15:14:07.555Z,90.44
2023-02-02T15:16:39.395Z,91.07
2023-02-02T15:19:15.324Z,90.93
2023-02-02T15:21:46.960Z,90.13
2023-02-02T15:24:21.487Z,91.04
2023-02-02T15:26:50.947Z,91.17
2023-02-02T15:29:29.848Z,91.46
2023-02-02T15:31:58.306Z,90.23
2023-02-02T15:34:28.734Z,89.94
2023-02-02T15:36:59.377Z,89.89
2023-02-02T15:39:30.955Z,90.70
2023-02-02T15:42:19.693Z,90.35
2023-02-02T15:44:48.647Z,91.01
2023-02-02T15:47:20.674Z,90.11
2023-02-02T15:49:49.501Z,91.91
2023-02-02T15:55:22.691Z,91.53
2023-02-02T15:57:54.173Z,91.03
2023-02-02T16:00:29.301Z,90.78
2023-02-02T16:03:03.245Z,91.02
2023-02-02T16:05:48.570Z,90.43
2023-02-02T16:08:19.314Z,92.42
2023-02-02T16:10:48.985Z,91.51
2023-02-02T16:13:25.124Z,90.79
2023-02-02T16:15:58.794Z,91.31
2023-02-02T16:18:26.629Z,90.75
2023-02-02T16:20:55.648Z,90.17
2023-02-02T16:23:30.028Z,91.32
2023-02-02T16:26:01.236Z,90.20
2023-02-02T16:28:29.808Z,90.79
2023-02-02T16:31:01.585Z,90.35
2023-02-02T16:33:31.433Z,90.45
2023-02-02T16:35:59.529Z,90.00
2023-02-02T16:38:33.175Z,91.06
2023-02-02T16:41:05.851Z,90.08
2023-02-02T16:43:35.929Z,90.42
2023-02-02T16:46:08.785Z,89.87
2023-02-02T16:48:38.203Z,89.50
2023-02-02T16:51:22.503Z,89.85
2023-02-02T16:53:58.182Z,89.82
2023-02-02T16:56:30.179Z,89.75
2023-02-02T16:59:00.839Z,90.99
2023-02-02T17:01:37.803Z,91.15
2023-02-02T17:04:08.182Z,90.17
2023-02-02T17:06:51.352Z,89.58
2023-02-02T17:09:36.004Z,91.05
2023-02-02T17:12:09.348Z,90.51
2023-02-02T17:14:53.384Z,91.03
2023-02-02T17:17:22.553Z,91.64
2023-02-02T17:19:50.343Z,91.43
2023-02-02T17:22:20.904Z,91.35
2023-02-02T17:24:52.114Z,90.56
2023-02-02T17:27:25.077Z,91.75
2023-02-02T17:29:53.951Z,91.74
2023-02-02T17:32:23.700Z,91.04
2023-02-02T17:34:52.339Z,91.37
2023-02-02T17:37:20.107Z,90.79
2023-02-02T17:39:49.053Z,90.92
2023-02-02T17:42:23.514Z,90.94
2023-02-02T17:44:51.383Z,92.06
2023-02-02T17:47:19.028Z,92.01
2023-02-02T17:49:48.578Z,92.41
2023-02-02T17:52:16.163Z,92.14
2023-02-02T17:54:43.949Z,92.62
2023-02-02T17:57:11.547Z,93.03
2023-02-02T17:59:39.491Z,93.60
2023-02-02T18:02:07.140Z,93.20
2023-02-02T18:04:35.116Z,93.78
2023-02-02T18:07:04.073Z,93.48
2023-02-02T18:09:34.430Z,92.92
2023-02-02T18:12:02.071Z,93.39
2023-02-02T18:14:30.460Z,93.35
2023-02-02T18:16:58.046Z,93.84
2023-02-02T18:19:26.197Z,93.10
2023-02-02T18:21:53.792Z,93.20
2023-02-02T18:24:22.760Z,93.71
2023-02-02T18:26:50.357Z,94.07
2023-02-02T18:29:18.719Z,94.09
2023-02-02T18:31:46.748Z,93.74
2023-02-02T18:34:14.418Z,93.59
2023-02-02T18:36:42.325Z,93.40
2023-02-02T18:39:09.929Z,94.11
2023-02-02T18:41:38.936Z,94.06
2023-02-02T18:44:06.551Z,93.32
2023-02-02T18:46:34.502Z,93.79
2023-02-02T18:49:02.254Z,93.44
2023-02-02T18:51:31.639Z,92.89
2023-02-02T18:54:00.336Z,93.22
2023-02-02T18:56:29.458Z,94.08
2023-02-02T18:58:59.106Z,94.06
2023-02-02T19:01:26.914Z,94.49
2023-02-02T19:03:57.025Z,94.82
2023-02-02T19:06:43.685Z,94.09
2023-02-02T19:09:13.562Z,94.71
2023-02-02T19:11:43.845Z,94.86
2023-02-02T19:14:15.118Z,94.23
2023-02-02T19:16:44.896Z,94.01
2023-02-02T19:19:24.180Z,94.31
2023-02-02T19:21:56.090Z,94.06
2023-02-02T19:24:26.543Z,94.48
2023-02-02T19:26:55.883Z,95.40
2023-02-02T19:29:26.471Z,95.06
2023-02-02T19:31:59.988Z,94.89
2023-02-02T19:34:27.617Z,93.66
2023-02-02T19:36:55.567Z,93.88
2023-02-02T19:39:30.701Z,94.20
2023-02-02T19:42:01.323Z,93.55
2023-02-02T19:44:33.970Z,93.56
2023-02-02T19:47:02.928Z,93.85
2023-02-02T19:49:33.706Z,93.54
2023-02-02T19:52:04.684Z,94.00
2023-02-02T19:54:35.500Z,94.01
2023-02-02T19:57:16.089Z,93.99
2023-02-02T19:59:47.987Z,94.39
2023-02-02T20:02:38.167Z,94.25
2023-02-02T20:05:18.139Z,94.23
2023-02-02T20:07:46.251Z,93.87
2023-02-02T20:10:21.192Z,93.60
2023-02-02T20:12:50.319Z,93.35
2023-02-02T20:15:28.430Z,93.31
2023-02-02T20:17:58.777Z,92.89
2023-02-02T20:20:28.716Z,93.46
2023-02-02T20:22:58.264Z,93.27
2023-02-02T20:25:25.953Z,91.14
2023-02-02T20:27:53.666Z,91.39
2023-02-02T20:30:26.732Z,91.31
2023-02-02T20:32:58.033Z,91.55
2023-02-02T20:35:35.818Z,92.04
2023-02-02T20:38:14.211Z,91.86
2023-02-02T20:40:42.228Z,91.19
2023-02-02T20:43:10.190Z,90.76
2023-02-02T20:45:39.183Z,90.47
2023-02-02T20:48:07.071Z,90.85
2023-02-02T20:50:35.193Z,90.16
2023-02-02T20:53:02.818Z,90.05
2023-02-02T20:55:31.519Z,90.05
2023-02-02T20:57:59.809Z,90.04
2023-02-02T21:00:27.840Z,91.21
2023-02-02T21:02:57.776Z,88.82
2023-02-02T21:05:25.629Z,90.03
2023-02-02T21:07:55.299Z,90.63
2023-02-02T21:10:23.485Z,90.26
2023-02-02T21:12:52.077Z,90.00
2023-02-02T21:15:20.010Z,89.87
2023-02-02T21:17:47.815Z,89.72
2023-02-02T21:20:16.849Z,89.31
2023-02-02T21:22:44.589Z,88.88
2023-02-02T21:25:13.016Z,88.27
2023-02-02T21:27:42.198Z,88.46
2023-02-02T21:30:12.131Z,88.71
2023-02-02T21:32:40.223Z,88.21
2023-02-02T21:35:08.217Z,88.20
2023-02-02T21:37:38.280Z,88.35
2023-02-02T21:40:14.316Z,86.97
2023-02-02T21:42:49.030Z,86.56
2023-02-02T21:45:34.616Z,86.90
2023-02-02T21:48:06.319Z,86.75
2023-02-02T21:50:36.397Z,87.32
2023-02-02T21:53:19.172Z,85.83
2023-02-02T21:55:48.015Z,86.33
2023-02-02T21:58:22.207Z,87.29
2023-02-02T22:00:50.690Z,86.55
2023-02-02T22:03:29.011Z,86.19
2023-02-02T22:06:14.096Z,85.53
2023-02-02T22:08:43.709Z,86.13
2023-02-02T22:11:22.781Z,87.00
2023-02-02T22:13:51.803Z,86.18
2023-02-02T22:16:21.459Z,86.23
2023-02-02T22:18:49.566Z,86.75
2023-02-02T22:21:20.913Z,86.14
2023-02-02T22:23:50.622Z,85.43
2023-02-02T22:26:32.113Z,84.96
2023-02-02T22:29:00.530Z,84.65
2023-02-02T22:31:28.234Z,84.94
2023-02-02T22:33:56.067Z,85.57
2023-02-02T22:36:23.668Z,86.28
2023-02-02T22:38:52.776Z,85.90
2023-02-02T22:41:20.403Z,86.05
2023-02-02T22:43:49.109Z,85.34
2023-02-02T22:46:16.736Z,85.98
2023-02-02T22:48:44.938Z,85.88
2023-02-02T22:51:12.571Z,85.30
2023-02-02T22:53:40.224Z,85.52
2023-02-02T22:56:09.394Z,85.36
2023-02-02T22:58:37.313Z,85.09
2023-02-02T23:01:05.235Z,85.77
2023-02-02T23:03:33.756Z,85.40
2023-02-02T23:06:01.479Z,85.67
2023-02-02T23:08:29.145Z,85.00
2023-02-02T23:10:56.777Z,83.97
2023-02-02T23:13:25.987Z,84.43
2023-02-02T23:15:53.907Z,83.62
2023-02-02T23:18:22.140Z,83.30
2023-02-02T23:20:50.685Z,83.24
2023-02-02T23:23:18.272Z,83.78
2023-02-02T23:25:45.946Z,83.98
2023-02-02T23:28:13.568Z,84.21
2023-02-02T23:30:42.979Z,83.69
2023-02-02T23:33:10.767Z,83.37
2023-02-02T23:35:39.060Z,83.69
2023-02-02T23:38:06.628Z,83.99
2023-02-02T23:40:34.551Z,84.08
2023-02-02T23:43:02.224Z,83.13
2023-02-02T23:45:30.203Z,83.15
2023-02-02T23:47:59.276Z,83.81
2023-02-02T23:50:28.111Z,83.52
2023-02-02T23:52:56.147Z,83.30
2023-02-02T23:55:24.450Z,83.36
2023-02-02T23:57:52.127Z,83.07
